Maybell, Colorado
Current Conditions -  °F | °C
As of 9:37 AM on Monday 24 Nov 2014 (Local Time) from KCAG Reporting Station
Overcast Overcast  
Wind Chill: 20°   Ceiling: 2900
Heat Index: 27°   Visibility: 10mi
Dew Point: 19°   Wind: 6mph
Humidity: 72%   Direction: 210°SSW
Pressure: 30.1"   Gusts: NA
Location:  40.52°N, 108.09°W
Report Text: KCAG 241637Z AUTO 21005KT 10SM BKN029 OVC036 M03/M07 A3010 RMK AO2 T10281072
Loading
Personal Weather Stations






























Interactive Weather Map New forecast layout! Learn more

10-Day Weather Forecast

Advertisements
Track Severe Weather on mobile